Crossfield, Canada
Current Conditions -  °F | °C
As of 2:00 PM on Tuesday 21 Oct 2014 (Local Time) from CYYC Reporting Station
Broken Clouds Broken Clouds  
Wind Chill: 59°   Ceiling: 19000
Heat Index: 59°   Visibility: 40mi
Dew Point: 34°   Wind: 15mph
Humidity: 39%   Direction: 280°W
Pressure: 29.66"   Gusts: NA
Location:  51.43°N, 114.03°W
Report Text: CYYC 212000Z 28013KT 40SM FEW045 BKN190 BKN300 15/01 A2966 RMK SC1AS5CI2 SC TR SLP051 DENSITY ALT 4700FT
Loading
Personal Weather Stations






























Interactive Weather Map
Tropical Storm Tracking
New forecast layout! Learn more

10-Day Weather Forecast

Advertisements
Track Severe Weather on mobile